OWP weather

William R. Pogue Municipal Airport
Sand Springs, Oklahoma, United States

Public forecast

Using degrees Fahrenheit for public forecast. Weather courtesy of forecast.io.

METAR (pilot weather report)

Retrieved 2019/04/26 10:35 UTC (0 seconds ago):

KOWP 261035Z AUTO 00000KT 10SM CLR 11/09 A3014 RMK AO2 T01090093 PWINO

TAF (pilot weather forecast)

Closest forecast is Richard Lloyd Jones Jr Airport, 11.5 nm (21.3 km) SE. Retrieved 2019/04/26 06:22 UTC (4 hours ago):

TAF KRVS 260520Z 2606/2706 35007KT P6SM SKC FM262000 17006KT P6SM FEW250